Time,TemperatureF,DewpointF,PressureIn,WindDirection,WindDirectionDegrees,WindSpeedMPH,WindSpeedGustMPH,Humidity,HourlyPrecipIn,Conditions,Clouds,dailyrainin,SoftwareType,DateUTC
2013-07-04 00:02:00,64.8,16.1,24.89,WSW,248,20.1,21.0,15,-99.99,,---,-99.99,VWS V14.01,2013-07-04 07:02:00,
2013-07-04 00:07:00,64.6,15.9,24.89,WSW,250,18.8,21.5,15,-99.99,,---,-99.99,VWS V14.01,2013-07-04 07:07:00,
2013-07-04 00:12:00,64.6,15.9,24.89,West,260,19.7,21.5,15,-99.99,,---,-99.99,VWS V14.01,2013-07-04 07:12:00,
2013-07-04 00:17:00,64.6,15.9,24.89,WSW,251,20.1,20.1,15,-99.99,,---,-99.99,VWS V14.01,2013-07-04 07:17:00,
2013-07-04 00:22:00,64.6,15.9,24.89,WSW,254,19.7,19.7,15,-99.99,,---,-99.99,VWS V14.01,2013-07-04 07:22:00,
2013-07-04 00:27:00,64.6,15.9,24.89,WSW,255,18.8,18.8,15,-99.99,,---,-99.99,VWS V14.01,2013-07-04 07:27:00,
2013-07-04 00:32:00,64.9,16.2,24.89,WSW,248,19.2,19.7,15,-99.99,,---,-99.99,VWS V14.01,2013-07-04 07:32:00,
2013-07-04 00:37:00,64.9,16.2,24.89,WSW,248,19.7,19.7,15,-99.99,,---,-99.99,VWS V14.01,2013-07-04 07:37:00,
2013-07-04 00:42:00,64.9,16.2,24.89,WSW,256,19.2,20.1,15,-99.99,,---,-99.99,VWS V14.01,2013-07-04 07:42:00,
2013-07-04 00:47:00,65.1,16.4,24.89,WSW,258,15.9,17.9,15,-99.99,,---,-99.99,VWS V14.01,2013-07-04 07:47:00,
2013-07-04 00:52:00,65.1,16.4,24.89,West,264,15.4,19.7,15,-99.99,,---,-99.99,VWS V14.01,2013-07-04 07:52:00,
2013-07-04 00:57:00,64.9,16.2,24.89,West,262,17.4,18.8,15,-99.99,,---,-99.99,VWS V14.01,2013-07-04 07:57:00,
2013-07-04 01:02:00,64.8,16.1,24.89,West,263,17.4,17.4,15,-99.99,,---,-99.99,VWS V14.01,2013-07-04 08:02:00,
2013-07-04 01:07:00,64.4,15.8,24.89,WSW,258,17.4,17.4,15,-99.99,,---,-99.99,VWS V14.01,2013-07-04 08:07:00,
2013-07-04 01:12:00,64.4,15.8,24.89,WSW,256,17.4,17.4,15,-99.99,,---,-99.99,VWS V14.01,2013-07-04 08:12:00,
2013-07-04 01:17:00,64.6,15.9,24.89,WSW,258,17.0,17.0,15,-99.99,,---,-99.99,VWS V14.01,2013-07-04 08:17:00,
2013-07-04 01:22:00,64.6,15.9,24.89,West,261,15.4,16.8,15,-99.99,,---,-99.99,VWS V14.01,2013-07-04 08:22:00,
2013-07-04 01:27:00,64.4,15.8,24.89,West,267,14.5,16.8,15,-99.99,,---,-99.99,VWS V14.01,2013-07-04 08:27:00,
2013-07-04 01:32:00,64.4,15.8,24.89,West,263,16.8,16.8,15,-99.99,,---,-99.99,VWS V14.01,2013-07-04 08:32:00,
2013-07-04 01:37:00,64.4,15.8,24.89,WSW,253,15.0,15.9,15,-99.99,,---,-99.99,VWS V14.01,2013-07-04 08:37:00,
2013-07-04 01:42:00,64.2,17.1,24.89,West,266,15.4,15.4,16,-99.99,,---,-99.99,VWS V14.01,2013-07-04 08:42:00,
2013-07-04 01:47:00,64.2,17.1,24.89,West,262,15.4,15.4,16,-99.99,,---,-99.99,VWS V14.01,2013-07-04 08:47:00,
2013-07-04 01:52:00,64.2,17.1,24.89,West,274,12.8,15.4,16,-99.99,,---,-99.99,VWS V14.01,2013-07-04 08:52:00,
2013-07-04 01:57:00,64.4,15.8,24.89,West,264,11.9,13.6,15,-99.99,,---,-99.99,VWS V14.01,2013-07-04 08:57:00,
2013-07-04 02:02:00,64.2,17.1,24.89,West,264,13.2,15.0,16,-99.99,,---,-99.99,VWS V14.01,2013-07-04 09:02:00,
2013-07-04 02:07:00,64.2,17.1,24.89,West,267,12.8,13.6,16,-99.99,,---,-99.99,VWS V14.01,2013-07-04 09:07:00,
2013-07-04 02:12:00,64.2,17.1,24.89,West,267,14.1,14.1,16,-99.99,,---,-99.99,VWS V14.01,2013-07-04 09:12:00,
2013-07-04 02:16:00,64.2,17.1,24.89,West,261,12.8,12.8,16,-99.99,,---,-99.99,VWS V14.01,2013-07-04 09:16:00,
2013-07-04 02:21:00,64.2,17.1,24.89,WSW,258,12.8,13.6,16,-99.99,,---,-99.99,VWS V14.01,2013-07-04 09:21:00,
2013-07-04 02:26:00,64.4,15.8,24.89,West,264,11.0,11.9,15,-99.99,,---,-99.99,VWS V14.01,2013-07-04 09:26:00,
2013-07-04 02:31:00,64.4,15.8,24.89,West,263,11.9,12.8,15,-99.99,,---,-99.99,VWS V14.01,2013-07-04 09:31:00,
2013-07-04 02:36:00,64.4,15.8,24.89,WSW,256,11.0,12.3,15,-99.99,,---,-99.99,VWS V14.01,2013-07-04 09:36:00,
2013-07-04 02:41:00,64.6,15.9,24.89,West,265,12.8,12.8,15,-99.99,,---,-99.99,VWS V14.01,2013-07-04 09:41:00,
2013-07-04 02:47:00,64.8,16.1,24.89,West,260,12.8,12.8,15,-99.99,,---,-99.99,VWS V14.01,2013-07-04 09:47:00,
2013-07-04 02:52:00,64.8,16.1,24.89,West,260,10.5,11.0,15,-99.99,,---,-99.99,VWS V14.01,2013-07-04 09:52:00,
2013-07-04 02:57:00,64.9,16.2,24.89,West,259,9.6,10.5,15,-99.99,,---,-99.99,VWS V14.01,2013-07-04 09:57:00,
2013-07-04 03:02:00,64.8,16.1,24.89,West,263,10.1,11.0,15,-99.99,,---,-99.99,VWS V14.01,2013-07-04 10:02:00,
2013-07-04 03:07:00,64.9,16.2,24.89,WSW,258,8.3,9.6,15,-99.99,,---,-99.99,VWS V14.01,2013-07-04 10:07:00,
2013-07-04 03:12:00,64.9,16.2,24.89,West,266,12.3,12.3,15,-99.99,,---,-99.99,VWS V14.01,2013-07-04 10:12:00,
2013-07-04 03:17:00,64.9,16.2,24.89,WSW,258,10.5,11.0,15,-99.99,,---,-99.99,VWS V14.01,2013-07-04 10:17:00,
2013-07-04 03:22:00,65.1,16.4,24.89,West,260,8.7,8.7,15,-99.99,,---,-99.99,VWS V14.01,2013-07-04 10:22:00,
2013-07-04 03:27:00,65.1,16.4,24.89,West,260,8.3,8.3,15,-99.99,,---,-99.99,VWS V14.01,2013-07-04 10:27:00,
2013-07-04 03:32:00,64.8,16.1,24.89,WSW,258,11.0,11.0,15,-99.99,,---,-99.99,VWS V14.01,2013-07-04 10:32:00,
2013-07-04 03:37:00,64.4,15.8,24.89,West,260,9.2,10.1,15,-99.99,,---,-99.99,VWS V14.01,2013-07-04 10:37:00,
2013-07-04 03:42:00,64.2,17.1,24.89,WSW,255,0.0,0.0,16,-99.99,,---,-99.99,VWS V14.01,2013-07-04 10:42:00,
2013-07-04 03:47:00,64.6,15.9,24.89,West,262,0.0,0.0,15,-99.99,,---,-99.99,VWS V14.01,2013-07-04 10:47:00,
2013-07-04 03:52:00,64.8,16.1,24.89,West,261,0.0,0.0,15,-99.99,,---,-99.99,VWS V14.01,2013-07-04 10:52:00,
2013-07-04 03:57:00,64.9,16.2,24.89,West,260,0.0,0.0,15,-99.99,,---,-99.99,VWS V14.01,2013-07-04 10:57:00,
2013-07-04 04:02:00,64.9,16.2,24.89,WSW,258,0.0,0.0,15,-99.99,,---,-99.99,VWS V14.01,2013-07-04 11:02:00,
2013-07-04 04:07:00,64.9,16.2,24.89,WSW,258,0.0,0.0,15,-99.99,,---,-99.99,VWS V14.01,2013-07-04 11:07:00,
2013-07-04 04:12:00,65.5,16.6,24.89,WSW,258,0.0,0.0,15,-99.99,,---,-99.99,VWS V14.01,2013-07-04 11:12:00,
2013-07-04 04:17:00,65.5,16.6,24.89,WSW,252,0.0,0.0,15,-99.99,,---,-99.99,VWS V14.01,2013-07-04 11:17:00,
2013-07-04 04:22:00,65.3,16.5,24.89,WSW,256,0.0,0.0,15,-99.99,,---,-99.99,VWS V14.01,2013-07-04 11:22:00,
2013-07-04 04:27:00,65.3,16.5,24.89,WSW,256,0.0,0.0,15,-99.99,,---,-99.99,VWS V14.01,2013-07-04 11:27:00,
2013-07-04 04:32:00,65.7,16.8,24.89,WSW,254,0.0,0.0,15,-99.99,,---,-99.99,VWS V14.01,2013-07-04 11:32:00,
2013-07-04 04:37:00,65.7,16.8,24.89,WSW,255,0.0,0.0,15,-99.99,,---,-99.99,VWS V14.01,2013-07-04 11:37:00,
2013-07-04 04:42:00,65.8,16.9,24.89,WSW,252,0.0,0.0,15,-99.99,,---,-99.99,VWS V14.01,2013-07-04 11:42:00,
2013-07-04 04:47:00,66.6,17.5,24.89,WSW,255,0.0,0.0,15,-99.99,,---,-99.99,VWS V14.01,2013-07-04 11:47:00,
2013-07-04 04:52:00,66.7,17.6,24.89,West,266,0.0,0.0,15,-99.99,,---,-99.99,VWS V14.01,2013-07-04 11:52:00,
2013-07-04 04:57:00,67.1,17.9,24.89,NNE,24,0.0,0.0,15,-99.99,,---,-99.99,VWS V14.01,2013-07-04 11:57:00,
2013-07-04 05:02:00,67.5,18.2,24.89,North,0,0.0,0.0,15,-99.99,,---,-99.99,VWS V14.01,2013-07-04 12:02:00,
2013-07-04 05:07:00,67.6,18.4,24.89,NNW,331,0.0,0.0,15,-99.99,,---,-99.99,VWS V14.01,2013-07-04 12:07:00,
2013-07-04 05:12:00,67.5,18.2,24.89,West,279,0.0,0.0,15,-99.99,,---,-99.99,VWS V14.01,2013-07-04 12:12:00,
2013-07-04 05:17:00,67.1,17.9,24.89,WNW,303,0.0,0.0,15,-99.99,,---,-99.99,VWS V14.01,2013-07-04 12:17:00,
2013-07-04 05:22:00,67.3,18.1,24.89,North,0,0.0,0.0,15,-99.99,,---,-99.99,VWS V14.01,2013-07-04 12:22:00,
2013-07-04 05:27:00,67.5,18.2,24.89,North,349,0.0,0.0,15,-99.99,,---,-99.99,VWS V14.01,2013-07-04 12:27:00,
2013-07-04 05:32:00,67.5,18.2,24.89,WSW,251,0.0,0.0,15,-99.99,,---,-99.99,VWS V14.01,2013-07-04 12:32:00,
2013-07-04 05:37:00,66.7,17.6,24.89,WSW,251,0.0,0.0,15,-99.99,,---,-99.99,VWS V14.01,2013-07-04 12:37:00,
2013-07-04 05:42:00,66.6,17.5,24.89,West,269,0.0,0.0,15,-99.99,,---,-99.99,VWS V14.01,2013-07-04 12:42:00,
2013-07-04 05:47:00,67.1,17.9,24.89,North,0,0.0,0.0,15,-99.99,,---,-99.99,VWS V14.01,2013-07-04 12:47:00,
2013-07-04 05:52:00,67.5,18.2,24.89,North,3,0.0,0.0,15,-99.99,,---,-99.99,VWS V14.01,2013-07-04 12:52:00,
2013-07-04 05:57:00,67.5,18.2,24.89,North,5,0.0,0.0,15,-99.99,,---,-99.99,VWS V14.01,2013-07-04 12:57:00,
2013-07-04 06:02:00,67.5,18.2,24.89,North,5,0.0,0.0,15,-99.99,,---,-99.99,VWS V14.01,2013-07-04 13:02:00,
2013-07-04 06:07:00,67.3,18.1,24.89,North,5,0.0,0.0,15,-99.99,,---,-99.99,VWS V14.01,2013-07-04 13:07:00,
2013-07-04 06:12:00,66.9,17.8,24.89,North,353,0.0,0.0,15,-99.99,,---,-99.99,VWS V14.01,2013-07-04 13:12:00,
2013-07-04 06:17:00,66.7,17.6,24.89,North,353,0.0,0.0,15,-99.99,,---,-99.99,VWS V14.01,2013-07-04 13:17:00,
2013-07-04 06:22:00,66.9,17.8,24.89,North,353,0.0,0.0,15,-99.99,,---,-99.99,VWS V14.01,2013-07-04 13:22:00,
2013-07-04 06:27:00,67.1,17.9,24.89,North,353,0.0,0.0,15,-99.99,,---,-99.99,VWS V14.01,2013-07-04 13:27:00,
2013-07-04 06:32:00,67.6,18.4,24.89,North,353,0.0,0.0,15,-99.99,,---,-99.99,VWS V14.01,2013-07-04 13:32:00,
2013-07-04 06:37:00,68.2,18.8,24.89,North,353,0.0,0.0,15,-99.99,,---,-99.99,VWS V14.01,2013-07-04 13:37:00,
2013-07-04 06:42:00,68.9,19.4,24.89,North,353,0.0,0.0,15,-99.99,,---,-99.99,VWS V14.01,2013-07-04 13:42:00,
2013-07-04 06:47:00,69.1,19.5,24.89,WSW,249,0.0,0.0,15,-99.99,,---,-99.99,VWS V14.01,2013-07-04 13:47:00,
2013-07-04 06:52:00,69.3,19.7,24.89,WSW,249,0.0,0.0,15,-99.99,,---,-99.99,VWS V14.01,2013-07-04 13:52:00,
2013-07-04 06:57:00,70.3,18.9,24.89,WSW,249,0.0,0.0,14,-99.99,,---,-99.99,VWS V14.01,2013-07-04 13:57:00,
2013-07-04 07:02:00,70.7,19.2,24.89,WSW,243,0.0,0.0,14,-99.99,,---,-99.99,VWS V14.01,2013-07-04 14:02:00,
2013-07-04 07:07:00,70.5,19.1,24.89,SW,236,0.0,0.0,14,-99.99,,---,-99.99,VWS V14.01,2013-07-04 14:07:00,
2013-07-04 07:08:00,70.5,19.1,24.89,SW,236,0.0,0.0,14,-99.99,,---,-99.99,VWS V14.01,2013-07-04 14:08:00,
2013-07-04 07:13:00,71.4,24.4,24.89,SW,236,0.0,0.0,17,-99.99,,---,-99.99,VWS V14.01,2013-07-04 14:13:00,
2013-07-04 07:18:00,70.2,18.8,24.89,WSW,239,0.0,0.0,14,-99.99,,---,-99.99,VWS V14.01,2013-07-04 14:18:00,
2013-07-04 07:23:00,68.9,19.4,24.89,WSW,244,0.0,0.0,15,-99.99,,---,-99.99,VWS V14.01,2013-07-04 14:23:00,
2013-07-04 07:28:00,68.9,19.4,24.89,WSW,238,0.0,0.0,15,-99.99,,---,-99.99,VWS V14.01,2013-07-04 14:28:00,
2013-07-04 07:33:00,69.6,20.0,24.89,WSW,243,0.0,0.0,15,-99.99,,---,-99.99,VWS V14.01,2013-07-04 14:33:00,
2013-07-04 07:38:00,70.5,19.1,24.89,WSW,243,0.0,0.0,14,-99.99,,---,-99.99,VWS V14.01,2013-07-04 14:38:00,
2013-07-04 07:43:00,71.2,24.2,24.89,WSW,243,0.0,0.0,17,-99.99,,---,-99.99,VWS V14.01,2013-07-04 14:43:00,
2013-07-04 07:48:00,72.1,23.5,24.89,WSW,243,0.0,0.0,16,-99.99,,---,-99.99,VWS V14.01,2013-07-04 14:48:00,
2013-07-04 07:53:00,73.2,24.4,24.89,WSW,243,0.0,0.0,16,-99.99,,---,-99.99,VWS V14.01,2013-07-04 14:53:00,
2013-07-04 07:58:00,73.9,25.0,24.89,South,190,0.0,0.0,16,-99.99,,---,-99.99,VWS V14.01,2013-07-04 14:58:00,
2013-07-04 08:03:00,74.7,25.5,24.89,SSW,200,0.0,0.0,16,-99.99,,---,-99.99,VWS V14.01,2013-07-04 15:03:00,
2013-07-04 08:08:00,75.2,24.4,24.89,SSW,212,0.0,0.0,15,-99.99,,---,-99.99,VWS V14.01,2013-07-04 15:08:00,
2013-07-04 08:13:00,75.0,25.8,24.89,SW,225,0.0,0.0,16,-99.99,,---,-99.99,VWS V14.01,2013-07-04 15:13:00,
2013-07-04 08:18:00,75.0,25.8,24.89,WSW,252,0.0,0.0,16,-99.99,,---,-99.99,VWS V14.01,2013-07-04 15:18:00,
2013-07-04 08:23:00,74.1,25.1,24.89,WSW,248,0.0,0.0,16,-99.99,,---,-99.99,VWS V14.01,2013-07-04 15:23:00,
2013-07-04 08:28:00,74.5,25.4,24.89,WSW,245,0.0,0.0,16,-99.99,,---,-99.99,VWS V14.01,2013-07-04 15:28:00,
2013-07-04 08:33:00,74.5,25.4,24.89,WSW,248,0.0,0.0,16,-99.99,,---,-99.99,VWS V14.01,2013-07-04 15:33:00,
2013-07-04 08:38:00,74.1,25.1,24.89,West,267,0.0,0.0,16,-99.99,,---,-99.99,VWS V14.01,2013-07-04 15:38:00,
2013-07-04 08:43:00,73.9,25.0,24.89,WSW,251,0.0,0.0,16,-99.99,,---,-99.99,VWS V14.01,2013-07-04 15:43:00,
2013-07-04 08:48:00,73.9,25.0,24.89,WSW,248,0.0,0.0,16,-99.99,,---,-99.99,VWS V14.01,2013-07-04 15:48:00,
2013-07-04 08:53:00,74.7,25.5,24.89,WSW,253,0.0,0.0,16,-99.99,,---,-99.99,VWS V14.01,2013-07-04 15:53:00,
2013-07-04 08:58:00,74.5,25.4,24.89,WNW,291,0.0,0.0,16,-99.99,,---,-99.99,VWS V14.01,2013-07-04 15:58:00,
2013-07-04 09:03:00,74.7,25.5,24.89,West,273,0.0,0.0,16,-99.99,,---,-99.99,VWS V14.01,2013-07-04 16:03:00,
2013-07-04 09:08:00,74.8,25.7,24.89,West,272,0.0,0.0,16,-99.99,,---,-99.99,VWS V14.01,2013-07-04 16:08:00,
2013-07-04 09:13:00,75.6,24.7,24.89,West,262,0.0,0.0,15,-99.99,,---,-99.99,VWS V14.01,2013-07-04 16:13:00,
2013-07-04 09:18:00,75.4,24.6,24.89,West,279,0.0,0.0,15,-99.99,,---,-99.99,VWS V14.01,2013-07-04 16:18:00,
2013-07-04 09:23:00,77.4,26.1,24.89,West,279,0.0,0.0,15,-99.99,,---,-99.99,VWS V14.01,2013-07-04 16:23:00,
2013-07-04 09:28:00,78.8,27.3,24.89,NNW,342,0.0,0.0,15,-99.99,,---,-99.99,VWS V14.01,2013-07-04 16:28:00,
2013-07-04 09:33:00,79.7,28.0,24.89,North,357,0.0,0.0,15,-99.99,,---,-99.99,VWS V14.01,2013-07-04 16:33:00,
2013-07-04 09:38:00,78.8,27.3,24.89,West,266,0.0,0.0,15,-99.99,,---,-99.99,VWS V14.01,2013-07-04 16:38:00,
2013-07-04 09:43:00,77.9,26.6,24.89,North,4,0.0,0.0,15,-99.99,,---,-99.99,VWS V14.01,2013-07-04 16:43:00,
2013-07-04 09:48:00,79.2,27.6,24.89,NNE,14,0.0,0.0,15,-99.99,,---,-99.99,VWS V14.01,2013-07-04 16:48:00,
2013-07-04 09:53:00,80.1,28.3,24.89,NNE,15,0.0,0.0,15,-99.99,,---,-99.99,VWS V14.01,2013-07-04 16:53:00,
2013-07-04 09:58:00,79.0,27.4,24.89,WNW,299,0.0,0.0,15,-99.99,,---,-99.99,VWS V14.01,2013-07-04 16:58:00,
2013-07-04 10:03:00,79.0,27.4,24.89,West,268,0.0,0.0,15,-99.99,,---,-99.99,VWS V14.01,2013-07-04 17:03:00,
2013-07-04 10:08:00,79.7,28.0,24.89,North,9,0.0,0.0,15,-99.99,,---,-99.99,VWS V14.01,2013-07-04 17:08:00,
2013-07-04 10:13:00,80.6,27.0,24.89,NNW,331,0.0,0.0,14,-99.99,,---,-99.99,VWS V14.01,2013-07-04 17:13:00,
2013-07-04 10:18:00,81.0,27.3,24.89,NNW,345,0.0,0.0,14,-99.99,,---,-99.99,VWS V14.01,2013-07-04 17:18:00,
2013-07-04 10:23:00,82.0,28.2,24.89,NNE,18,0.0,0.0,14,-99.99,,---,-99.99,VWS V14.01,2013-07-04 17:23:00,
2013-07-04 10:28:00,82.8,28.8,24.89,North,1,0.0,0.0,14,-99.99,,---,-99.99,VWS V14.01,2013-07-04 17:28:00,
2013-07-04 10:33:00,83.5,29.3,24.89,North,353,0.0,0.0,14,-99.99,,---,-99.99,VWS V14.01,2013-07-04 17:33:00,
2013-07-04 10:38:00,84.0,29.8,24.89,ENE,78,0.0,0.0,14,-99.99,,---,-99.99,VWS V14.01,2013-07-04 17:38:00,
2013-07-04 10:43:00,84.6,28.4,24.89,NE,52,0.0,0.0,13,-99.99,,---,-99.99,VWS V14.01,2013-07-04 17:43:00,
2013-07-04 10:48:00,84.7,28.5,24.89,ENE,62,0.0,0.0,13,-99.99,,---,-99.99,VWS V14.01,2013-07-04 17:48:00,
2013-07-04 10:53:00,84.7,28.5,24.89,NE,34,0.0,0.0,13,-99.99,,---,-99.99,VWS V14.01,2013-07-04 17:53:00,
2013-07-04 10:58:00,85.1,28.8,24.89,NE,46,0.0,0.0,13,-99.99,,---,-99.99,VWS V14.01,2013-07-04 17:58:00,
2013-07-04 11:03:00,85.6,29.2,24.89,NNE,27,0.0,0.0,13,-99.99,,---,-99.99,VWS V14.01,2013-07-04 18:03:00,
2013-07-04 11:08:00,85.3,28.9,24.89,NNE,15,0.0,0.0,13,-99.99,,---,-99.99,VWS V14.01,2013-07-04 18:08:00,
2013-07-04 11:13:00,84.9,28.6,24.89,NNE,25,0.0,0.0,13,-99.99,,---,-99.99,VWS V14.01,2013-07-04 18:13:00,
2013-07-04 11:18:00,84.9,28.6,24.89,East,79,0.0,0.0,13,-99.99,,---,-99.99,VWS V14.01,2013-07-04 18:18:00,
2013-07-04 11:24:00,84.9,28.6,24.89,NNE,28,0.0,0.0,13,-99.99,,---,-99.99,VWS V14.01,2013-07-04 18:24:00,
2013-07-04 11:29:00,85.1,28.8,24.89,ENE,67,0.0,0.0,13,-99.99,,---,-99.99,VWS V14.01,2013-07-04 18:29:00,
2013-07-04 11:33:00,86.0,29.5,24.89,ENE,72,0.0,0.0,13,-99.99,,---,-99.99,VWS V14.01,2013-07-04 18:33:00,
2013-07-04 11:39:00,86.2,29.6,24.89,ENE,60,0.0,0.0,13,-99.99,,---,-99.99,VWS V14.01,2013-07-04 18:39:00,
2013-07-04 11:44:00,86.4,29.8,24.89,NNE,23,0.0,0.0,13,-99.99,,---,-99.99,VWS V14.01,2013-07-04 18:44:00,
2013-07-04 11:49:00,87.1,30.3,24.89,NNE,30,0.0,0.0,13,-99.99,,---,-99.99,VWS V14.01,2013-07-04 18:49:00,
2013-07-04 11:54:00,87.1,30.3,24.89,NE,36,0.0,0.0,13,-99.99,,---,-99.99,VWS V14.01,2013-07-04 18:54:00,
2013-07-04 11:59:00,87.3,30.5,24.89,NE,34,0.0,0.0,13,-99.99,,---,-99.99,VWS V14.01,2013-07-04 18:59:00,
2013-07-04 12:04:00,87.3,30.5,24.89,North,7,0.0,0.0,13,-99.99,,---,-99.99,VWS V14.01,2013-07-04 19:04:00,
2013-07-04 12:09:00,87.4,30.6,24.89,North,353,0.0,0.0,13,-99.99,,---,-99.99,VWS V14.01,2013-07-04 19:09:00,
2013-07-04 12:14:00,87.4,30.6,24.89,NNE,12,0.0,0.0,13,-99.99,,---,-99.99,VWS V14.01,2013-07-04 19:14:00,
2013-07-04 12:19:00,87.4,30.6,24.89,North,9,0.0,0.0,13,-99.99,,---,-99.99,VWS V14.01,2013-07-04 19:19:00,
2013-07-04 12:24:00,88.2,31.2,24.89,NE,41,0.0,0.0,13,-99.99,,---,-99.99,VWS V14.01,2013-07-04 19:24:00,
2013-07-04 12:29:00,88.5,31.5,24.89,NE,45,0.0,0.0,13,-99.99,,---,-99.99,VWS V14.01,2013-07-04 19:29:00,
2013-07-04 12:34:00,88.7,31.6,24.89,NE,35,0.0,0.0,13,-99.99,,---,-99.99,VWS V14.01,2013-07-04 19:34:00,
2013-07-04 12:39:00,88.3,31.3,24.89,NE,35,0.0,0.0,13,-99.99,,---,-99.99,VWS V14.01,2013-07-04 19:39:00,
2013-07-04 12:44:00,88.7,31.6,24.89,NE,34,0.0,0.0,13,-99.99,,---,-99.99,VWS V14.01,2013-07-04 19:44:00,
2013-07-04 12:49:00,88.7,31.6,24.89,NNE,27,0.0,0.0,13,-99.99,,---,-99.99,VWS V14.01,2013-07-04 19:49:00,
2013-07-04 12:54:00,89.1,31.9,24.89,NE,44,0.0,0.0,13,-99.99,,---,-99.99,VWS V14.01,2013-07-04 19:54:00,
2013-07-04 12:59:00,89.4,32.2,24.89,NE,34,0.0,0.0,13,-99.99,,---,-99.99,VWS V14.01,2013-07-04 19:59:00,
2013-07-04 13:04:00,90.1,30.7,24.89,ESE,102,0.0,0.0,12,-99.99,,---,-99.99,VWS V14.01,2013-07-04 20:04:00,
2013-07-04 13:09:00,90.3,30.9,24.89,ENE,58,0.0,0.0,12,-99.99,,---,-99.99,VWS V14.01,2013-07-04 20:09:00,
2013-07-04 13:14:00,90.0,30.6,24.89,NE,35,0.0,0.0,12,-99.99,,---,-99.99,VWS V14.01,2013-07-04 20:14:00,
2013-07-04 13:19:00,90.3,30.9,24.89,NNE,23,0.0,0.0,12,-99.99,,---,-99.99,VWS V14.01,2013-07-04 20:19:00,
2013-07-04 13:24:00,90.7,31.2,24.89,ENE,67,0.0,0.0,12,-99.99,,---,-99.99,VWS V14.01,2013-07-04 20:24:00,
2013-07-04 13:29:00,90.3,30.9,24.89,NNW,342,0.0,0.0,12,-99.99,,---,-99.99,VWS V14.01,2013-07-04 20:29:00,
2013-07-04 13:34:00,90.0,30.6,24.89,NNE,22,0.0,0.0,12,-99.99,,---,-99.99,VWS V14.01,2013-07-04 20:34:00,
2013-07-04 13:39:00,90.9,31.3,24.89,NNE,24,0.0,0.0,12,-99.99,,---,-99.99,VWS V14.01,2013-07-04 20:39:00,
2013-07-04 13:44:00,89.2,32.0,24.89,NW,309,0.0,0.0,13,-99.99,,---,-99.99,VWS V14.01,2013-07-04 20:44:00,
2013-07-04 13:49:00,88.9,31.7,24.89,WNW,295,0.0,0.0,13,-99.99,,---,-99.99,VWS V14.01,2013-07-04 20:49:00,
2013-07-04 13:54:00,88.0,31.0,24.89,NW,316,0.0,0.0,13,-99.99,,---,-99.99,VWS V14.01,2013-07-04 20:54:00,
2013-07-04 13:59:00,87.4,30.6,24.89,North,7,0.0,0.0,13,-99.99,,---,-99.99,VWS V14.01,2013-07-04 20:59:00,
2013-07-04 14:04:00,87.1,30.3,24.89,North,8,0.0,0.0,13,-99.99,,---,-99.99,VWS V14.01,2013-07-04 21:04:00,
2013-07-04 14:09:00,87.1,30.3,24.89,North,10,0.0,0.0,13,-99.99,,---,-99.99,VWS V14.01,2013-07-04 21:09:00,
2013-07-04 14:14:00,87.4,30.6,24.89,North,357,0.0,0.0,13,-99.99,,---,-99.99,VWS V14.01,2013-07-04 21:14:00,
2013-07-04 14:19:00,88.0,31.0,24.89,NNE,27,0.0,0.0,13,-99.99,,---,-99.99,VWS V14.01,2013-07-04 21:19:00,
2013-07-04 14:24:00,87.8,30.9,24.89,NNE,25,0.0,0.0,13,-99.99,,---,-99.99,VWS V14.01,2013-07-04 21:24:00,
2013-07-04 14:29:00,88.9,31.7,24.89,NNE,14,0.0,0.0,13,-99.99,,---,-99.99,VWS V14.01,2013-07-04 21:29:00,
2013-07-04 14:34:00,90.0,30.6,24.89,NW,310,0.0,0.0,12,-99.99,,---,-99.99,VWS V14.01,2013-07-04 21:34:00,
2013-07-04 14:39:00,88.9,31.7,24.89,NNE,28,0.0,0.0,13,-99.99,,---,-99.99,VWS V14.01,2013-07-04 21:39:00,
2013-07-04 14:44:00,88.9,31.7,24.89,North,11,0.0,0.0,13,-99.99,,---,-99.99,VWS V14.01,2013-07-04 21:44:00,
2013-07-04 14:49:00,87.8,30.9,24.89,SE,128,0.0,0.0,13,-99.99,,---,-99.99,VWS V14.01,2013-07-04 21:49:00,
2013-07-04 14:54:00,88.7,31.6,24.89,SSE,153,0.0,0.0,13,-99.99,,---,-99.99,VWS V14.01,2013-07-04 21:54:00,
2013-07-04 14:59:00,87.8,30.9,24.89,SSE,160,0.0,0.0,13,-99.99,,---,-99.99,VWS V14.01,2013-07-04 21:59:00,
2013-07-04 15:04:00,87.6,30.8,24.89,North,353,0.0,0.0,13,-99.99,,---,-99.99,VWS V14.01,2013-07-04 22:04:00,
2013-07-04 15:09:00,87.1,30.3,24.89,SSE,154,0.0,0.0,13,-99.99,,---,-99.99,VWS V14.01,2013-07-04 22:09:00,
2013-07-04 15:14:00,87.1,30.3,24.89,WSW,252,0.0,0.0,13,-99.99,,---,-99.99,VWS V14.01,2013-07-04 22:14:00,
2013-07-04 15:19:00,87.1,30.3,24.89,West,270,0.0,0.0,13,-99.99,,---,-99.99,VWS V14.01,2013-07-04 22:19:00,
2013-07-04 15:24:00,85.6,29.2,24.89,SSW,204,0.0,0.0,13,-99.99,,---,-99.99,VWS V14.01,2013-07-04 22:24:00,
2013-07-04 15:29:00,84.9,28.6,24.89,South,173,0.0,0.0,13,-99.99,,---,-99.99,VWS V14.01,2013-07-04 22:29:00,
2013-07-04 15:34:00,86.2,29.6,24.89,SSE,158,0.0,0.0,13,-99.99,,---,-99.99,VWS V14.01,2013-07-04 22:34:00,
2013-07-04 15:39:00,84.0,29.8,24.89,West,274,0.0,0.0,14,-99.99,,---,-99.99,VWS V14.01,2013-07-04 22:39:00,
2013-07-04 15:44:00,84.2,28.1,24.89,South,188,0.0,0.0,13,-99.99,,---,-99.99,VWS V14.01,2013-07-04 22:44:00,
2013-07-04 15:49:00,83.8,29.6,24.89,SSE,164,0.0,0.0,14,-99.99,,---,-99.99,VWS V14.01,2013-07-04 22:49:00,
2013-07-04 15:54:00,83.1,29.0,24.89,SSE,156,0.0,0.0,14,-99.99,,---,-99.99,VWS V14.01,2013-07-04 22:54:00,
2013-07-04 15:59:00,82.6,28.6,24.89,SSE,154,0.0,0.0,14,-99.99,,---,-99.99,VWS V14.01,2013-07-04 22:59:00,
2013-07-04 16:04:00,81.9,28.0,24.89,SSW,202,0.0,0.0,14,-99.99,,---,-99.99,VWS V14.01,2013-07-04 23:04:00,
2013-07-04 16:09:00,82.2,28.3,24.89,SW,217,0.0,0.0,14,-99.99,,---,-99.99,VWS V14.01,2013-07-04 23:09:00,
2013-07-04 16:14:00,81.5,27.8,24.89,South,184,0.0,0.0,14,-99.99,,---,-99.99,VWS V14.01,2013-07-04 23:14:00,
2013-07-04 16:19:00,81.1,27.5,24.89,SSW,195,0.0,0.0,14,-99.99,,---,-99.99,VWS V14.01,2013-07-04 23:19:00,
2013-07-04 16:24:00,81.0,27.3,24.89,SSW,192,0.0,0.0,14,-99.99,,---,-99.99,VWS V14.01,2013-07-04 23:24:00,
2013-07-04 16:29:00,80.2,28.4,24.89,South,173,0.0,0.0,15,-99.99,,---,-99.99,VWS V14.01,2013-07-04 23:29:00,
2013-07-04 16:34:00,79.7,28.0,24.89,SSW,201,0.0,0.0,15,-99.99,,---,-99.99,VWS V14.01,2013-07-04 23:34:00,
2013-07-04 16:39:00,80.1,28.3,24.89,SSE,160,0.0,0.0,15,-99.99,,---,-99.99,VWS V14.01,2013-07-04 23:39:00,
2013-07-04 16:45:00,79.3,27.7,24.89,South,189,0.0,0.0,15,-99.99,,---,-99.99,VWS V14.01,2013-07-04 23:45:00,
2013-07-04 16:50:00,78.6,27.1,24.89,South,177,0.0,0.0,15,-99.99,,---,-99.99,VWS V14.01,2013-07-04 23:50:00,
2013-07-04 16:55:00,78.4,27.0,24.89,South,187,0.0,0.0,15,-99.99,,---,-99.99,VWS V14.01,2013-07-04 23:55:00,
2013-07-04 17:00:00,78.4,27.0,24.89,South,180,0.0,0.0,15,-99.99,,---,-99.99,VWS V14.01,2013-07-05 00:00:00,
2013-07-04 17:05:00,77.5,26.3,24.89,South,190,0.0,0.0,15,-99.99,,---,-99.99,VWS V14.01,2013-07-05 00:05:00,
2013-07-04 17:10:00,77.7,26.4,24.89,South,181,0.0,0.0,15,-99.99,,---,-99.99,VWS V14.01,2013-07-05 00:10:00,
2013-07-04 17:15:00,77.2,26.0,24.89,South,185,0.0,0.0,15,-99.99,,---,-99.99,VWS V14.01,2013-07-05 00:15:00,
2013-07-04 17:20:00,76.5,25.4,24.89,SSE,156,0.0,0.0,15,-99.99,,---,-99.99,VWS V14.01,2013-07-05 00:20:00,
2013-07-04 17:25:00,76.3,25.3,24.89,South,171,0.0,0.0,15,-99.99,,---,-99.99,VWS V14.01,2013-07-05 00:25:00,
2013-07-04 17:30:00,75.4,24.6,24.89,South,191,0.0,0.0,15,-99.99,,---,-99.99,VWS V14.01,2013-07-05 00:30:00,
2013-07-04 17:35:00,74.8,25.7,24.89,SSE,168,0.0,0.0,16,-99.99,,---,-99.99,VWS V14.01,2013-07-05 00:35:00,
2013-07-04 17:40:00,74.1,25.1,24.89,SSW,195,0.0,0.0,16,-99.99,,---,-99.99,VWS V14.01,2013-07-05 00:40:00,
2013-07-04 17:45:00,74.3,20.3,24.89,South,188,0.0,0.0,13,-99.99,,---,-99.99,VWS V14.01,2013-07-05 00:45:00,
2013-07-04 17:50:00,73.9,20.0,24.89,South,169,0.0,0.0,13,-99.99,,---,-99.99,VWS V14.01,2013-07-05 00:50:00,
2013-07-04 17:55:00,73.9,20.0,24.89,South,182,0.0,0.0,13,-99.99,,---,-99.99,VWS V14.01,2013-07-05 00:55:00,
2013-07-04 18:00:00,73.6,19.8,24.89,SSW,208,0.0,0.0,13,-99.99,,---,-99.99,VWS V14.01,2013-07-05 01:00:00,
2013-07-04 18:05:00,73.2,21.2,24.89,SSW,196,0.0,0.0,14,-99.99,,---,-99.99,VWS V14.01,2013-07-05 01:05:00,
2013-07-04 18:10:00,73.0,21.1,24.89,SW,218,0.0,0.0,14,-99.99,,---,-99.99,VWS V14.01,2013-07-05 01:10:00,
2013-07-04 18:15:00,72.9,20.9,24.89,SSW,208,0.0,0.0,14,-99.99,,---,-99.99,VWS V14.01,2013-07-05 01:15:00,
2013-07-04 18:20:00,72.7,20.8,24.89,SW,222,0.0,0.0,14,-99.99,,---,-99.99,VWS V14.01,2013-07-05 01:20:00,
2013-07-04 18:25:00,72.3,20.5,24.89,South,185,0.0,0.0,14,-99.99,,---,-99.99,VWS V14.01,2013-07-05 01:25:00,
2013-07-04 18:30:00,71.8,20.1,24.89,SSW,192,10.5,11.0,14,-99.99,,---,-99.99,VWS V14.01,2013-07-05 01:30:00,
2013-07-04 18:35:00,71.8,20.1,24.89,SW,216,0.0,0.0,14,-99.99,,---,-99.99,VWS V14.01,2013-07-05 01:35:00,
2013-07-04 18:40:00,71.6,19.9,24.89,South,190,0.0,0.0,14,-99.99,,---,-99.99,VWS V14.01,2013-07-05 01:40:00,
2013-07-04 18:45:00,71.2,19.6,24.89,SSW,193,0.0,0.0,14,-99.99,,---,-99.99,VWS V14.01,2013-07-05 01:45:00,
2013-07-04 18:50:00,70.7,19.2,24.89,South,190,0.0,0.0,14,-99.99,,---,-99.99,VWS V14.01,2013-07-05 01:50:00,
2013-07-04 18:55:00,70.3,18.9,24.89,SSW,198,0.0,0.0,14,-99.99,,---,-99.99,VWS V14.01,2013-07-05 01:55:00,
2013-07-04 19:00:00,70.2,18.8,24.89,SSW,204,0.0,0.0,14,-99.99,,---,-99.99,VWS V14.01,2013-07-05 02:00:00,
2013-07-04 19:05:00,69.8,18.5,24.89,SSW,201,0.0,0.0,14,-99.99,,---,-99.99,VWS V14.01,2013-07-05 02:05:00,
2013-07-04 19:10:00,69.4,19.8,24.89,SSW,192,10.5,11.4,15,-99.99,,---,-99.99,VWS V14.01,2013-07-05 02:10:00,
2013-07-04 19:15:00,69.3,19.7,24.89,SSW,213,0.0,0.0,15,-99.99,,---,-99.99,VWS V14.01,2013-07-05 02:15:00,
2013-07-04 19:20:00,68.7,19.2,24.89,SSW,209,0.0,0.0,15,-99.99,,---,-99.99,VWS V14.01,2013-07-05 02:20:00,
2013-07-04 19:25:00,68.5,19.1,24.89,SSW,203,0.0,0.0,15,-99.99,,---,-99.99,VWS V14.01,2013-07-05 02:25:00,
2013-07-04 19:30:00,68.2,18.8,24.89,SW,214,0.0,0.0,15,-99.99,,---,-99.99,VWS V14.01,2013-07-05 02:30:00,
2013-07-04 19:35:00,67.8,18.5,24.89,SW,229,0.0,0.0,15,-99.99,,---,-99.99,VWS V14.01,2013-07-05 02:35:00,
2013-07-04 19:40:00,67.5,18.2,24.89,SW,216,12.8,13.6,15,-99.99,,---,-99.99,VWS V14.01,2013-07-05 02:40:00,
2013-07-04 19:45:00,67.3,18.1,24.89,SW,214,10.5,15.0,15,-99.99,,---,-99.99,VWS V14.01,2013-07-05 02:45:00,
2013-07-04 19:50:00,66.9,17.8,24.89,SSW,211,13.6,15.4,15,-99.99,,---,-99.99,VWS V14.01,2013-07-05 02:50:00,
2013-07-04 19:55:00,66.6,17.5,24.89,SW,227,13.6,13.6,15,-99.99,,---,-99.99,VWS V14.01,2013-07-05 02:55:00,
2013-07-04 20:00:00,66.2,17.2,24.89,SW,230,13.2,13.6,15,-99.99,,---,-99.99,VWS V14.01,2013-07-05 03:00:00,
2013-07-04 20:05:00,66.0,17.1,24.89,SSW,213,13.2,15.9,15,-99.99,,---,-99.99,VWS V14.01,2013-07-05 03:05:00,
2013-07-04 20:10:00,66.2,17.2,24.89,SW,217,14.5,15.0,15,-99.99,,---,-99.99,VWS V14.01,2013-07-05 03:10:00,
2013-07-04 20:15:00,66.0,17.1,24.89,SSW,205,15.0,15.4,15,-99.99,,---,-99.99,VWS V14.01,2013-07-05 03:15:00,
2013-07-04 20:20:00,66.0,17.1,24.89,SW,217,17.4,17.4,15,-99.99,,---,-99.99,VWS V14.01,2013-07-05 03:20:00,
2013-07-04 20:25:00,66.0,17.1,24.89,SW,229,16.3,17.4,15,-99.99,,---,-99.99,VWS V14.01,2013-07-05 03:25:00,
2013-07-04 20:30:00,65.7,16.8,24.89,SSW,213,11.9,16.3,15,-99.99,,---,-99.99,VWS V14.01,2013-07-05 03:30:00,
2013-07-04 20:35:00,65.3,16.5,24.89,SW,224,15.4,15.4,15,-99.99,,---,-99.99,VWS V14.01,2013-07-05 03:35:00,
2013-07-04 20:40:00,65.5,16.6,24.89,SW,230,13.2,13.6,15,-99.99,,---,-99.99,VWS V14.01,2013-07-05 03:40:00,
2013-07-04 20:45:00,65.5,16.6,24.89,SW,234,14.1,14.1,15,-99.99,,---,-99.99,VWS V14.01,2013-07-05 03:45:00,
2013-07-04 20:50:00,65.1,16.4,24.89,SW,226,17.0,17.0,15,-99.99,,---,-99.99,VWS V14.01,2013-07-05 03:50:00,
2013-07-04 20:55:00,64.9,16.2,24.89,SSW,208,15.4,16.8,15,-99.99,,---,-99.99,VWS V14.01,2013-07-05 03:55:00,
2013-07-04 21:00:00,64.9,16.2,24.89,SW,233,19.2,19.2,15,-99.99,,---,-99.99,VWS V14.01,2013-07-05 04:00:00,
2013-07-04 21:01:00,64.9,16.2,24.89,SW,231,17.4,20.6,15,-99.99,,---,-99.99,VWS V14.01,2013-07-05 04:01:00,
2013-07-04 21:02:00,64.9,16.2,24.89,SW,230,18.8,19.7,15,-99.99,,---,-99.99,VWS V14.01,2013-07-05 04:02:00,
2013-07-04 21:07:00,65.1,16.4,24.89,SW,234,21.5,21.5,15,-99.99,,---,-99.99,VWS V14.01,2013-07-05 04:07:00,
2013-07-04 21:12:00,65.1,16.4,24.89,WSW,247,21.0,21.0,15,-99.99,,---,-99.99,VWS V14.01,2013-07-05 04:12:00,
2013-07-04 21:17:00,65.1,16.4,24.89,WSW,247,17.4,21.0,15,-99.99,,---,-99.99,VWS V14.01,2013-07-05 04:17:00,
2013-07-04 21:22:00,65.1,16.4,24.89,WSW,247,18.8,19.7,15,-99.99,,---,-99.99,VWS V14.01,2013-07-05 04:22:00,
2013-07-04 21:27:00,64.9,16.2,24.89,WSW,238,17.0,17.9,15,-99.99,,---,-99.99,VWS V14.01,2013-07-05 04:27:00,
2013-07-04 21:32:00,64.8,16.1,24.89,WSW,252,16.8,19.2,15,-99.99,,---,-99.99,VWS V14.01,2013-07-05 04:32:00,
2013-07-04 21:37:00,64.8,16.1,24.89,WSW,241,18.3,21.5,15,-99.99,,---,-99.99,VWS V14.01,2013-07-05 04:37:00,
2013-07-04 21:42:00,64.8,16.1,24.89,WSW,246,19.7,20.1,15,-99.99,,---,-99.99,VWS V14.01,2013-07-05 04:42:00,
2013-07-04 21:47:00,64.8,16.1,24.89,WSW,256,20.1,20.1,15,-99.99,,---,-99.99,VWS V14.01,2013-07-05 04:47:00,
2013-07-04 21:52:00,64.6,15.9,24.89,WSW,251,17.4,18.3,15,-99.99,,---,-99.99,VWS V14.01,2013-07-05 04:52:00,
2013-07-04 21:57:00,64.6,15.9,24.89,SW,236,17.4,17.9,15,-99.99,,---,-99.99,VWS V14.01,2013-07-05 04:57:00,
2013-07-04 22:02:00,64.4,15.8,24.89,WSW,248,16.3,17.9,15,-99.99,,---,-99.99,VWS V14.01,2013-07-05 05:02:00,
2013-07-04 22:07:00,64.4,15.8,24.89,SW,223,19.7,20.1,15,-99.99,,---,-99.99,VWS V14.01,2013-07-05 05:07:00,
2013-07-04 22:12:00,64.6,15.9,24.89,SW,236,17.4,19.7,15,-99.99,,---,-99.99,VWS V14.01,2013-07-05 05:12:00,
2013-07-04 22:17:00,64.4,15.8,24.89,WSW,244,16.8,19.2,15,-99.99,,---,-99.99,VWS V14.01,2013-07-05 05:17:00,
2013-07-04 22:22:00,64.4,15.8,24.89,SW,229,17.4,19.7,15,-99.99,,---,-99.99,VWS V14.01,2013-07-05 05:22:00,
2013-07-04 22:27:00,64.2,17.1,24.89,SW,234,15.4,18.8,16,-99.99,,---,-99.99,VWS V14.01,2013-07-05 05:27:00,
2013-07-04 22:32:00,64.0,17.0,24.89,SW,233,16.8,17.9,16,-99.99,,---,-99.99,VWS V14.01,2013-07-05 05:32:00,
2013-07-04 22:37:00,64.0,17.0,24.89,SW,228,15.4,16.3,16,-99.99,,---,-99.99,VWS V14.01,2013-07-05 05:37:00,
2013-07-04 22:42:00,64.0,17.0,24.89,SW,222,14.1,16.8,16,-99.99,,---,-99.99,VWS V14.01,2013-07-05 05:42:00,
2013-07-04 22:47:00,63.9,16.8,24.89,SW,231,15.4,15.4,16,-99.99,,---,-99.99,VWS V14.01,2013-07-05 05:47:00,
2013-07-04 22:52:00,63.9,16.8,24.89,SW,227,16.3,16.3,16,-99.99,,---,-99.99,VWS V14.01,2013-07-05 05:52:00,
2013-07-04 22:57:00,63.5,16.5,24.89,SW,234,13.2,13.2,16,-99.99,,---,-99.99,VWS V14.01,2013-07-05 05:57:00,
2013-07-04 23:02:00,63.1,16.2,24.89,SW,225,15.0,15.4,16,-99.99,,---,-99.99,VWS V14.01,2013-07-05 06:02:00,
2013-07-04 23:07:00,63.0,16.1,24.89,SW,222,13.2,15.0,16,-99.99,,---,-99.99,VWS V14.01,2013-07-05 06:07:00,
2013-07-04 23:12:00,62.8,15.9,24.89,SW,235,12.8,17.0,16,-99.99,,---,-99.99,VWS V14.01,2013-07-05 06:12:00,
2013-07-04 23:17:00,62.8,15.9,24.89,SW,232,15.4,17.4,16,-99.99,,---,-99.99,VWS V14.01,2013-07-05 06:17:00,
2013-07-04 23:22:00,62.6,15.8,24.89,WSW,240,17.4,17.4,16,-99.99,,---,-99.99,VWS V14.01,2013-07-05 06:22:00,
2013-07-04 23:27:00,62.6,15.8,24.89,SW,232,13.2,15.4,16,-99.99,,---,-99.99,VWS V14.01,2013-07-05 06:27:00,
2013-07-04 23:32:00,62.6,15.8,24.89,SW,235,15.0,16.3,16,-99.99,,---,-99.99,VWS V14.01,2013-07-05 06:32:00,
2013-07-04 23:37:00,62.6,15.8,24.89,SW,233,15.0,15.0,16,-99.99,,---,-99.99,VWS V14.01,2013-07-05 06:37:00,
2013-07-04 23:42:00,62.8,15.9,24.89,SW,216,11.9,12.8,16,-99.99,,---,-99.99,VWS V14.01,2013-07-05 06:42:00,
2013-07-04 23:47:00,62.8,15.9,24.89,WSW,239,13.2,15.4,16,-99.99,,---,-99.99,VWS V14.01,2013-07-05 06:47:00,
2013-07-04 23:52:00,62.8,15.9,24.89,SW,229,11.0,12.8,16,-99.99,,---,-99.99,VWS V14.01,2013-07-05 06:52:00,
2013-07-04 23:57:00,62.6,15.8,24.89,SW,222,11.0,15.0,16,-99.99,,---,-99.99,VWS V14.01,2013-07-05 06:57:00,